Impacts TAF Board
For situational awareness. Not to be used for flight planning purposes.
IDs:

KCVG - Cincinnati Intl, KY, US

Issued at 2328 UTC 09 Dec 2018
Updated at 0435 UTC 10 Dec 2018
Potential Impact None Slight Moderate High
Time0352Z 10/05Z 10/06Z 10/07Z 10/08Z 10/09Z 10/10Z 10/11Z 10/12Z 10/13Z 10/14Z 10/15Z 10/16Z 10/17Z>>
Type OBS PRVL PRVL PRVL PRVL PRVL PRVL PRVL PRVL PRVL PRVL PRVL PRVL PRVL
VIS 10 >6 >6 >6 >6 >6 >6 >6 >6 >6 >6 >6 >6 >6
CIG -- -- -- -- -- -- -- -- -- -- -- -- -- --
Cover FEW SCT SCT SCT SCT SCT SCT SCT SCT SCT SKC SKC SKC SKC
FltCat VFR VFR VFR VFR VFR VFR VFR VFR VFR VFR VFR VFR VFR VFR
WX -- -- -- -- -- -- -- -- -- -- -- -- -- --
WDir 10 360 360 360 360 360 360 360 360 360 330 330 330 330
WSpd 9 4 4 4 4 4 4 4 4 4 7 7 7 7
WGst -- -- -- -- -- -- -- -- -- -- -- -- -- --
Raw TAF
KCVG 092328Z 1000/1106 03006KT P6SM BKN250
  FM100400 36004KT P6SM SCT250
  FM101400 33007KT P6SM SKC
  FM110000 29003KT P6SM SKC


Raw METAR
KCVG 100352Z 01009KT 10SM FEW250 M03/M08 A3020 RMK AO2 SLP235 T10331083
KCVG 100252Z 01008KT 10SM SCT250 M03/M08 A3021 RMK AO2 SLP236 T10331078 52005
KCVG 100152Z 36009KT 10SM SCT250 M02/M08 A3020 RMK AO2 SLP235 T10221078

METAR Board
Radar Display
Forecast Discussion
For situational awareness. Not to be used for flight planning purposes.